Terminal Aerodrome Forecast
Issued by NWS

Home | Current Version | Previous Version | Text Only | Print | Product List | Glossary On
Versions: 1 2 3 4 5 6 7 8 9 10 11 12 13 14 15 16 17 18
000
FTAK31 PAFA 030520
TAFAQT
TAF
PAQT 030520Z 0306/0406 27008KT 3SM BR VCSH BKN040
     FM031200 24010KT 6SM BR SCT007 OVC015
     FM031800 25006KT P6SM OVC025=

USA.gov is the U.S. government's official web portal to all federal, state and local government web resources and services.